sensor_id;sensor_type;location;lat;lon;timestamp;P1;durP1;ratioP1;P2;durP2;ratioP2
1677;SDS011;6034;46.864;15.216;2023-09-19T00:00:20;9.73;;;8.57;;
1677;SDS011;6034;46.864;15.216;2023-09-19T00:02:53;12.23;;;9.00;;
1677;SDS011;6034;46.864;15.216;2023-09-19T00:05:22;11.73;;;9.30;;
1677;SDS011;6034;46.864;15.216;2023-09-19T00:07:52;10.10;;;9.10;;
1677;SDS011;6034;46.864;15.216;2023-09-19T00:10:21;10.43;;;8.40;;
1677;SDS011;6034;46.864;15.216;2023-09-19T00:12:49;9.50;;;8.53;;
1677;SDS011;6034;46.864;15.216;2023-09-19T00:15:20;12.10;;;8.90;;
1677;SDS011;6034;46.864;15.216;2023-09-19T00:17:47;12.17;;;10.80;;
1677;SDS011;6034;46.864;15.216;2023-09-19T00:20:17;12.07;;;8.43;;
1677;SDS011;6034;46.864;15.216;2023-09-19T00:22:48;14.10;;;9.40;;
1677;SDS011;6034;46.864;15.216;2023-09-19T00:25:15;12.03;;;9.17;;
1677;SDS011;6034;46.864;15.216;2023-09-19T00:27:43;14.53;;;10.47;;
1677;SDS011;6034;46.864;15.216;2023-09-19T00:30:18;12.30;;;9.13;;
1677;SDS011;6034;46.864;15.216;2023-09-19T00:32:46;11.93;;;8.90;;
1677;SDS011;6034;46.864;15.216;2023-09-19T00:35:14;11.27;;;9.03;;
1677;SDS011;6034;46.864;15.216;2023-09-19T00:37:42;12.20;;;8.53;;
1677;SDS011;6034;46.864;15.216;2023-09-19T00:40:10;10.33;;;9.23;;
1677;SDS011;6034;46.864;15.216;2023-09-19T00:42:38;10.50;;;8.70;;
1677;SDS011;6034;46.864;15.216;2023-09-19T00:45:06;10.03;;;9.00;;
1677;SDS011;6034;46.864;15.216;2023-09-19T00:47:38;10.00;;;9.10;;
1677;SDS011;6034;46.864;15.216;2023-09-19T00:50:06;12.00;;;8.67;;
1677;SDS011;6034;46.864;15.216;2023-09-19T00:52:36;11.90;;;9.67;;
1677;SDS011;6034;46.864;15.216;2023-09-19T00:55:05;13.30;;;10.17;;
1677;SDS011;6034;46.864;15.216;2023-09-19T00:57:34;13.50;;;9.30;;
1677;SDS011;6034;46.864;15.216;2023-09-19T01:00:03;13.30;;;9.97;;
1677;SDS011;6034;46.864;15.216;2023-09-19T01:02:34;13.73;;;10.10;;
1677;SDS011;6034;46.864;15.216;2023-09-19T01:05:04;14.40;;;9.63;;
1677;SDS011;6034;46.864;15.216;2023-09-19T01:07:32;13.77;;;8.93;;
1677;SDS011;6034;46.864;15.216;2023-09-19T01:10:00;9.40;;;8.50;;
1677;SDS011;6034;46.864;15.216;2023-09-19T01:12:33;10.20;;;8.60;;
1677;SDS011;6034;46.864;15.216;2023-09-19T01:15:13;9.67;;;8.67;;
1677;SDS011;6034;46.864;15.216;2023-09-19T01:17:45;10.70;;;8.83;;
1677;SDS011;6034;46.864;15.216;2023-09-19T01:20:21;12.67;;;9.23;;
1677;SDS011;6034;46.864;15.216;2023-09-19T01:23:02;10.50;;;8.80;;
1677;SDS011;6034;46.864;15.216;2023-09-19T01:28:53;15.50;;;9.90;;
1677;SDS011;6034;46.864;15.216;2023-09-19T01:31:24;11.10;;;8.77;;
1677;SDS011;6034;46.864;15.216;2023-09-19T01:33:58;14.23;;;9.20;;
1677;SDS011;6034;46.864;15.216;2023-09-19T01:36:30;11.37;;;8.00;;
1677;SDS011;6034;46.864;15.216;2023-09-19T01:39:00;10.20;;;8.50;;
1677;SDS011;6034;46.864;15.216;2023-09-19T01:44:29;10.27;;;9.03;;
1677;SDS011;6034;46.864;15.216;2023-09-19T01:47:18;14.30;;;9.10;;
1677;SDS011;6034;46.864;15.216;2023-09-19T01:49:53;10.80;;;8.70;;
1677;SDS011;6034;46.864;15.216;2023-09-19T01:52:26;12.47;;;8.97;;
1677;SDS011;6034;46.864;15.216;2023-09-19T01:55:01;9.87;;;8.87;;
1677;SDS011;6034;46.864;15.216;2023-09-19T01:57:34;10.57;;;9.00;;
1677;SDS011;6034;46.864;15.216;2023-09-19T02:00:07;10.53;;;9.17;;
1677;SDS011;6034;46.864;15.216;2023-09-19T02:02:39;10.80;;;8.90;;
1677;SDS011;6034;46.864;15.216;2023-09-19T02:05:10;10.40;;;8.80;;
1677;SDS011;6034;46.864;15.216;2023-09-19T02:07:38;12.10;;;9.50;;
1677;SDS011;6034;46.864;15.216;2023-09-19T02:10:06;12.40;;;9.53;;
1677;SDS011;6034;46.864;15.216;2023-09-19T02:12:35;9.60;;;8.60;;
1677;SDS011;6034;46.864;15.216;2023-09-19T02:15:03;9.53;;;7.30;;
1677;SDS011;6034;46.864;15.216;2023-09-19T02:17:32;9.63;;;7.07;;
1677;SDS011;6034;46.864;15.216;2023-09-19T02:20:01;7.37;;;5.00;;
1677;SDS011;6034;46.864;15.216;2023-09-19T02:22:36;10.47;;;5.87;;
1677;SDS011;6034;46.864;15.216;2023-09-19T02:25:04;4.60;;;3.20;;
1677;SDS011;6034;46.864;15.216;2023-09-19T02:27:33;4.57;;;3.33;;
1677;SDS011;6034;46.864;15.216;2023-09-19T02:30:01;1.90;;;1.47;;
1677;SDS011;6034;46.864;15.216;2023-09-19T02:32:29;4.73;;;1.83;;
1677;SDS011;6034;46.864;15.216;2023-09-19T02:34:56;3.83;;;2.27;;
1677;SDS011;6034;46.864;15.216;2023-09-19T02:37:26;3.80;;;2.20;;
1677;SDS011;6034;46.864;15.216;2023-09-19T02:39:53;4.17;;;2.90;;
1677;SDS011;6034;46.864;15.216;2023-09-19T02:42:21;3.70;;;2.60;;
1677;SDS011;6034;46.864;15.216;2023-09-19T02:44:49;5.80;;;3.80;;
1677;SDS011;6034;46.864;15.216;2023-09-19T02:47:16;4.00;;;1.70;;
1677;SDS011;6034;46.864;15.216;2023-09-19T02:49:44;2.60;;;1.83;;
1677;SDS011;6034;46.864;15.216;2023-09-19T02:52:12;3.10;;;1.90;;
1677;SDS011;6034;46.864;15.216;2023-09-19T02:54:41;3.10;;;1.97;;
1677;SDS011;6034;46.864;15.216;2023-09-19T02:57:13;4.40;;;1.90;;
1677;SDS011;6034;46.864;15.216;2023-09-19T02:59:42;2.70;;;2.00;;
1677;SDS011;6034;46.864;15.216;2023-09-19T03:02:10;2.70;;;1.80;;
1677;SDS011;6034;46.864;15.216;2023-09-19T03:04:37;3.17;;;1.53;;
1677;SDS011;6034;46.864;15.216;2023-09-19T03:07:05;2.63;;;2.00;;
1677;SDS011;6034;46.864;15.216;2023-09-19T03:09:32;3.10;;;1.57;;
1677;SDS011;6034;46.864;15.216;2023-09-19T03:12:01;2.73;;;1.60;;
1677;SDS011;6034;46.864;15.216;2023-09-19T03:14:29;2.60;;;1.73;;
1677;SDS011;6034;46.864;15.216;2023-09-19T03:17:00;2.33;;;1.20;;
1677;SDS011;6034;46.864;15.216;2023-09-19T03:19:29;1.73;;;1.03;;
1677;SDS011;6034;46.864;15.216;2023-09-19T03:21:58;3.73;;;1.70;;
1677;SDS011;6034;46.864;15.216;2023-09-19T03:24:26;3.50;;;1.53;;
1677;SDS011;6034;46.864;15.216;2023-09-19T03:26:54;2.70;;;1.20;;
1677;SDS011;6034;46.864;15.216;2023-09-19T03:29:23;2.17;;;1.30;;
1677;SDS011;6034;46.864;15.216;2023-09-19T03:31:52;2.30;;;1.77;;
1677;SDS011;6034;46.864;15.216;2023-09-19T03:34:20;3.00;;;1.73;;
1677;SDS011;6034;46.864;15.216;2023-09-19T03:36:48;2.40;;;1.00;;
1677;SDS011;6034;46.864;15.216;2023-09-19T03:39:15;4.37;;;1.70;;
1677;SDS011;6034;46.864;15.216;2023-09-19T03:41:43;2.83;;;1.70;;
1677;SDS011;6034;46.864;15.216;2023-09-19T03:44:10;1.70;;;1.20;;
1677;SDS011;6034;46.864;15.216;2023-09-19T03:46:39;1.60;;;1.00;;
1677;SDS011;6034;46.864;15.216;2023-09-19T03:49:06;2.80;;;1.60;;
1677;SDS011;6034;46.864;15.216;2023-09-19T03:51:35;1.80;;;0.90;;
1677;SDS011;6034;46.864;15.216;2023-09-19T03:54:03;2.63;;;1.50;;
1677;SDS011;6034;46.864;15.216;2023-09-19T03:56:30;2.10;;;1.10;;
1677;SDS011;6034;46.864;15.216;2023-09-19T03:58:58;4.83;;;2.03;;
1677;SDS011;6034;46.864;15.216;2023-09-19T04:01:25;2.17;;;1.37;;
1677;SDS011;6034;46.864;15.216;2023-09-19T04:03:54;2.27;;;1.07;;
1677;SDS011;6034;46.864;15.216;2023-09-19T04:06:22;1.83;;;1.27;;
1677;SDS011;6034;46.864;15.216;2023-09-19T04:08:49;2.57;;;1.30;;
1677;SDS011;6034;46.864;15.216;2023-09-19T04:11:16;1.90;;;1.07;;
1677;SDS011;6034;46.864;15.216;2023-09-19T04:13:44;2.50;;;1.10;;
1677;SDS011;6034;46.864;15.216;2023-09-19T04:16:11;3.73;;;1.17;;
1677;SDS011;6034;46.864;15.216;2023-09-19T04:18:38;2.50;;;1.60;;
1677;SDS011;6034;46.864;15.216;2023-09-19T04:21:07;3.57;;;1.13;;
1677;SDS011;6034;46.864;15.216;2023-09-19T04:23:35;5.40;;;1.47;;
1677;SDS011;6034;46.864;15.216;2023-09-19T04:26:02;3.50;;;1.43;;
1677;SDS011;6034;46.864;15.216;2023-09-19T04:28:31;3.67;;;1.47;;
1677;SDS011;6034;46.864;15.216;2023-09-19T04:30:59;1.50;;;0.90;;
1677;SDS011;6034;46.864;15.216;2023-09-19T04:33:26;2.90;;;1.67;;
1677;SDS011;6034;46.864;15.216;2023-09-19T04:35:54;2.57;;;1.23;;
1677;SDS011;6034;46.864;15.216;2023-09-19T04:38:23;3.53;;;1.40;;
1677;SDS011;6034;46.864;15.216;2023-09-19T04:40:56;3.37;;;1.47;;
1677;SDS011;6034;46.864;15.216;2023-09-19T04:43:24;2.80;;;1.67;;
1677;SDS011;6034;46.864;15.216;2023-09-19T04:45:52;2.90;;;1.30;;
1677;SDS011;6034;46.864;15.216;2023-09-19T04:48:21;4.20;;;1.60;;
1677;SDS011;6034;46.864;15.216;2023-09-19T04:50:50;5.50;;;2.00;;
1677;SDS011;6034;46.864;15.216;2023-09-19T04:53:18;1.73;;;1.20;;
1677;SDS011;6034;46.864;15.216;2023-09-19T04:55:51;3.23;;;1.37;;
1677;SDS011;6034;46.864;15.216;2023-09-19T04:58:20;2.53;;;1.33;;
1677;SDS011;6034;46.864;15.216;2023-09-19T05:00:48;1.93;;;0.93;;
1677;SDS011;6034;46.864;15.216;2023-09-19T05:03:16;3.63;;;1.13;;
1677;SDS011;6034;46.864;15.216;2023-09-19T05:05:46;3.20;;;1.47;;
1677;SDS011;6034;46.864;15.216;2023-09-19T05:08:13;3.13;;;1.40;;
1677;SDS011;6034;46.864;15.216;2023-09-19T05:10:41;1.53;;;0.83;;
1677;SDS011;6034;46.864;15.216;2023-09-19T05:13:10;2.53;;;1.60;;
1677;SDS011;6034;46.864;15.216;2023-09-19T05:15:37;1.90;;;1.17;;
1677;SDS011;6034;46.864;15.216;2023-09-19T05:18:06;3.20;;;1.07;;
1677;SDS011;6034;46.864;15.216;2023-09-19T05:20:34;2.80;;;1.27;;
1677;SDS011;6034;46.864;15.216;2023-09-19T05:23:03;2.37;;;1.10;;
1677;SDS011;6034;46.864;15.216;2023-09-19T05:25:38;2.83;;;0.97;;
1677;SDS011;6034;46.864;15.216;2023-09-19T05:28:06;1.40;;;0.80;;
1677;SDS011;6034;46.864;15.216;2023-09-19T05:30:35;1.30;;;0.90;;
1677;SDS011;6034;46.864;15.216;2023-09-19T05:33:03;1.60;;;1.03;;
1677;SDS011;6034;46.864;15.216;2023-09-19T05:35:31;1.37;;;0.90;;
1677;SDS011;6034;46.864;15.216;2023-09-19T05:38:00;1.23;;;0.80;;
1677;SDS011;6034;46.864;15.216;2023-09-19T05:40:27;3.27;;;0.90;;
1677;SDS011;6034;46.864;15.216;2023-09-19T05:42:55;2.60;;;1.43;;
1677;SDS011;6034;46.864;15.216;2023-09-19T05:45:22;2.30;;;0.90;;
1677;SDS011;6034;46.864;15.216;2023-09-19T05:47:52;2.60;;;1.10;;
1677;SDS011;6034;46.864;15.216;2023-09-19T05:50:21;2.50;;;0.83;;
1677;SDS011;6034;46.864;15.216;2023-09-19T05:52:53;2.90;;;1.13;;
1677;SDS011;6034;46.864;15.216;2023-09-19T05:55:21;6.23;;;1.53;;
1677;SDS011;6034;46.864;15.216;2023-09-19T05:57:50;2.07;;;1.00;;
1677;SDS011;6034;46.864;15.216;2023-09-19T06:00:18;3.10;;;1.17;;
1677;SDS011;6034;46.864;15.216;2023-09-19T06:02:52;5.40;;;1.20;;
1677;SDS011;6034;46.864;15.216;2023-09-19T06:05:20;2.57;;;1.10;;
1677;SDS011;6034;46.864;15.216;2023-09-19T06:07:48;1.43;;;0.90;;
1677;SDS011;6034;46.864;15.216;2023-09-19T06:10:16;1.80;;;1.40;;
1677;SDS011;6034;46.864;15.216;2023-09-19T06:12:43;2.73;;;1.20;;
1677;SDS011;6034;46.864;15.216;2023-09-19T06:15:11;1.70;;;1.00;;
1677;SDS011;6034;46.864;15.216;2023-09-19T06:17:40;3.00;;;1.30;;
1677;SDS011;6034;46.864;15.216;2023-09-19T06:20:10;1.97;;;1.10;;
1677;SDS011;6034;46.864;15.216;2023-09-19T06:22:41;1.40;;;0.80;;
1677;SDS011;6034;46.864;15.216;2023-09-19T06:25:09;2.07;;;0.80;;
1677;SDS011;6034;46.864;15.216;2023-09-19T06:27:40;1.83;;;1.07;;
1677;SDS011;6034;46.864;15.216;2023-09-19T06:30:09;1.40;;;0.90;;
1677;SDS011;6034;46.864;15.216;2023-09-19T06:32:38;4.07;;;1.40;;
1677;SDS011;6034;46.864;15.216;2023-09-19T06:35:10;2.10;;;0.83;;
1677;SDS011;6034;46.864;15.216;2023-09-19T06:37:38;5.83;;;1.30;;
1677;SDS011;6034;46.864;15.216;2023-09-19T06:40:07;2.50;;;1.13;;
1677;SDS011;6034;46.864;15.216;2023-09-19T06:42:38;3.00;;;1.27;;
1677;SDS011;6034;46.864;15.216;2023-09-19T06:45:07;4.37;;;1.00;;
1677;SDS011;6034;46.864;15.216;2023-09-19T06:47:37;1.50;;;0.90;;
1677;SDS011;6034;46.864;15.216;2023-09-19T06:50:05;2.93;;;1.40;;
1677;SDS011;6034;46.864;15.216;2023-09-19T06:52:40;2.63;;;1.37;;
1677;SDS011;6034;46.864;15.216;2023-09-19T06:55:08;1.80;;;1.00;;
1677;SDS011;6034;46.864;15.216;2023-09-19T06:57:38;2.20;;;0.90;;
1677;SDS011;6034;46.864;15.216;2023-09-19T07:00:06;2.17;;;1.63;;
1677;SDS011;6034;46.864;15.216;2023-09-19T07:02:40;2.17;;;1.50;;
1677;SDS011;6034;46.864;15.216;2023-09-19T07:05:08;4.40;;;1.70;;
1677;SDS011;6034;46.864;15.216;2023-09-19T07:07:35;2.40;;;1.80;;
1677;SDS011;6034;46.864;15.216;2023-09-19T07:10:05;2.87;;;1.90;;
1677;SDS011;6034;46.864;15.216;2023-09-19T07:12:33;2.80;;;1.20;;
1677;SDS011;6034;46.864;15.216;2023-09-19T07:15:01;3.77;;;1.20;;
1677;SDS011;6034;46.864;15.216;2023-09-19T07:17:28;2.10;;;1.50;;
1677;SDS011;6034;46.864;15.216;2023-09-19T07:19:55;2.13;;;1.10;;
1677;SDS011;6034;46.864;15.216;2023-09-19T07:22:23;1.50;;;0.90;;
1677;SDS011;6034;46.864;15.216;2023-09-19T07:24:52;2.50;;;1.00;;
1677;SDS011;6034;46.864;15.216;2023-09-19T07:27:21;2.07;;;1.60;;
1677;SDS011;6034;46.864;15.216;2023-09-19T07:29:48;2.10;;;1.33;;
1677;SDS011;6034;46.864;15.216;2023-09-19T07:32:16;1.97;;;1.23;;
1677;SDS011;6034;46.864;15.216;2023-09-19T07:34:43;3.20;;;1.20;;
1677;SDS011;6034;46.864;15.216;2023-09-19T07:37:11;2.53;;;1.30;;
1677;SDS011;6034;46.864;15.216;2023-09-19T07:39:41;2.30;;;1.40;;
1677;SDS011;6034;46.864;15.216;2023-09-19T07:42:10;3.50;;;1.47;;
1677;SDS011;6034;46.864;15.216;2023-09-19T07:44:44;3.20;;;1.33;;
1677;SDS011;6034;46.864;15.216;2023-09-19T07:47:14;2.10;;;1.13;;
1677;SDS011;6034;46.864;15.216;2023-09-19T07:49:42;2.40;;;1.60;;
1677;SDS011;6034;46.864;15.216;2023-09-19T07:52:13;2.47;;;1.43;;
1677;SDS011;6034;46.864;15.216;2023-09-19T07:54:40;1.90;;;1.30;;
1677;SDS011;6034;46.864;15.216;2023-09-19T07:57:09;2.87;;;1.80;;
1677;SDS011;6034;46.864;15.216;2023-09-19T07:59:37;4.53;;;1.50;;
1677;SDS011;6034;46.864;15.216;2023-09-19T08:02:08;2.43;;;1.63;;
1677;SDS011;6034;46.864;15.216;2023-09-19T08:04:41;2.70;;;1.30;;
1677;SDS011;6034;46.864;15.216;2023-09-19T08:07:08;2.63;;;1.90;;
1677;SDS011;6034;46.864;15.216;2023-09-19T08:09:36;2.57;;;1.70;;
1677;SDS011;6034;46.864;15.216;2023-09-19T08:12:04;2.50;;;1.60;;
1677;SDS011;6034;46.864;15.216;2023-09-19T08:14:33;2.67;;;1.70;;
1677;SDS011;6034;46.864;15.216;2023-09-19T08:17:01;1.97;;;1.47;;
1677;SDS011;6034;46.864;15.216;2023-09-19T08:19:31;3.10;;;1.93;;
1677;SDS011;6034;46.864;15.216;2023-09-19T08:21:58;2.93;;;1.90;;
1677;SDS011;6034;46.864;15.216;2023-09-19T08:24:26;3.53;;;2.10;;
1677;SDS011;6034;46.864;15.216;2023-09-19T08:26:55;3.93;;;1.87;;
1677;SDS011;6034;46.864;15.216;2023-09-19T08:29:23;3.33;;;2.50;;
1677;SDS011;6034;46.864;15.216;2023-09-19T08:31:53;4.10;;;1.93;;
1677;SDS011;6034;46.864;15.216;2023-09-19T08:34:21;4.27;;;1.70;;
1677;SDS011;6034;46.864;15.216;2023-09-19T08:36:51;5.30;;;2.30;;
1677;SDS011;6034;46.864;15.216;2023-09-19T08:39:21;3.40;;;1.70;;
1677;SDS011;6034;46.864;15.216;2023-09-19T08:41:48;4.70;;;1.80;;
1677;SDS011;6034;46.864;15.216;2023-09-19T08:44:16;4.00;;;2.00;;
1677;SDS011;6034;46.864;15.216;2023-09-19T08:46:44;3.40;;;1.90;;
1677;SDS011;6034;46.864;15.216;2023-09-19T08:49:17;3.63;;;2.30;;
1677;SDS011;6034;46.864;15.216;2023-09-19T08:51:57;3.30;;;1.87;;
1677;SDS011;6034;46.864;15.216;2023-09-19T08:54:31;2.80;;;1.90;;
1677;SDS011;6034;46.864;15.216;2023-09-19T08:57:05;4.27;;;1.67;;
1677;SDS011;6034;46.864;15.216;2023-09-19T08:59:37;3.00;;;2.13;;
1677;SDS011;6034;46.864;15.216;2023-09-19T09:02:08;5.30;;;2.40;;
1677;SDS011;6034;46.864;15.216;2023-09-19T09:04:39;5.13;;;3.03;;
1677;SDS011;6034;46.864;15.216;2023-09-19T09:07:11;4.20;;;2.30;;
1677;SDS011;6034;46.864;15.216;2023-09-19T09:09:39;1.77;;;1.37;;
1677;SDS011;6034;46.864;15.216;2023-09-19T09:12:08;3.70;;;1.87;;
1677;SDS011;6034;46.864;15.216;2023-09-19T09:14:38;5.13;;;2.03;;
1677;SDS011;6034;46.864;15.216;2023-09-19T09:17:06;3.03;;;1.70;;
1677;SDS011;6034;46.864;15.216;2023-09-19T09:19:34;3.70;;;1.80;;
1677;SDS011;6034;46.864;15.216;2023-09-19T09:22:06;2.57;;;1.73;;
1677;SDS011;6034;46.864;15.216;2023-09-19T09:24:35;3.03;;;1.77;;
1677;SDS011;6034;46.864;15.216;2023-09-19T09:27:05;2.60;;;1.80;;
1677;SDS011;6034;46.864;15.216;2023-09-19T09:29:42;4.27;;;1.90;;
1677;SDS011;6034;46.864;15.216;2023-09-19T09:32:21;4.20;;;1.60;;
1677;SDS011;6034;46.864;15.216;2023-09-19T09:34:50;4.73;;;2.10;;
1677;SDS011;6034;46.864;15.216;2023-09-19T09:37:19;2.53;;;1.97;;
1677;SDS011;6034;46.864;15.216;2023-09-19T09:39:53;4.27;;;2.10;;
1677;SDS011;6034;46.864;15.216;2023-09-19T09:42:29;3.57;;;1.80;;
1677;SDS011;6034;46.864;15.216;2023-09-19T09:45:13;2.70;;;2.37;;
1677;SDS011;6034;46.864;15.216;2023-09-19T09:47:42;4.17;;;2.80;;
1677;SDS011;6034;46.864;15.216;2023-09-19T09:53:19;3.07;;;1.77;;
1677;SDS011;6034;46.864;15.216;2023-09-19T09:55:58;4.00;;;1.50;;
1677;SDS011;6034;46.864;15.216;2023-09-19T09:58:28;3.13;;;1.57;;
1677;SDS011;6034;46.864;15.216;2023-09-19T10:00:58;2.87;;;2.07;;
1677;SDS011;6034;46.864;15.216;2023-09-19T10:03:34;3.67;;;1.80;;
1677;SDS011;6034;46.864;15.216;2023-09-19T10:06:07;4.20;;;1.90;;
1677;SDS011;6034;46.864;15.216;2023-09-19T10:08:59;3.27;;;1.90;;
1677;SDS011;6034;46.864;15.216;2023-09-19T10:11:43;5.00;;;1.80;;
1677;SDS011;6034;46.864;15.216;2023-09-19T10:14:11;6.10;;;2.20;;
1677;SDS011;6034;46.864;15.216;2023-09-19T10:16:40;4.47;;;2.00;;
1677;SDS011;6034;46.864;15.216;2023-09-19T10:19:14;2.67;;;1.93;;
1677;SDS011;6034;46.864;15.216;2023-09-19T10:21:47;3.23;;;1.83;;
1677;SDS011;6034;46.864;15.216;2023-09-19T10:24:16;1.87;;;1.40;;
1677;SDS011;6034;46.864;15.216;2023-09-19T10:26:47;3.10;;;1.53;;
1677;SDS011;6034;46.864;15.216;2023-09-19T10:29:16;2.77;;;1.40;;
1677;SDS011;6034;46.864;15.216;2023-09-19T10:31:46;2.20;;;1.80;;
1677;SDS011;6034;46.864;15.216;2023-09-19T10:34:15;3.60;;;2.10;;
1677;SDS011;6034;46.864;15.216;2023-09-19T10:36:45;4.40;;;1.63;;
1677;SDS011;6034;46.864;15.216;2023-09-19T10:39:14;2.10;;;1.40;;
1677;SDS011;6034;46.864;15.216;2023-09-19T10:41:49;2.57;;;1.40;;
1677;SDS011;6034;46.864;15.216;2023-09-19T10:44:25;2.13;;;1.30;;
1677;SDS011;6034;46.864;15.216;2023-09-19T10:46:53;2.13;;;1.30;;
1677;SDS011;6034;46.864;15.216;2023-09-19T10:49:22;2.27;;;1.43;;
1677;SDS011;6034;46.864;15.216;2023-09-19T10:51:51;2.43;;;1.23;;
1677;SDS011;6034;46.864;15.216;2023-09-19T10:54:23;1.80;;;1.30;;
1677;SDS011;6034;46.864;15.216;2023-09-19T10:56:56;2.47;;;1.40;;
1677;SDS011;6034;46.864;15.216;2023-09-19T10:59:25;1.83;;;1.13;;
1677;SDS011;6034;46.864;15.216;2023-09-19T11:02:00;3.87;;;1.40;;
1677;SDS011;6034;46.864;15.216;2023-09-19T11:04:42;3.97;;;1.67;;
1677;SDS011;6034;46.864;15.216;2023-09-19T11:07:13;2.90;;;1.60;;
1677;SDS011;6034;46.864;15.216;2023-09-19T11:09:49;4.13;;;1.60;;
1677;SDS011;6034;46.864;15.216;2023-09-19T11:24:28;2.43;;;1.47;;
1677;SDS011;6034;46.864;15.216;2023-09-19T11:27:11;3.50;;;1.73;;
1677;SDS011;6034;46.864;15.216;2023-09-19T11:29:40;4.33;;;1.90;;
1677;SDS011;6034;46.864;15.216;2023-09-19T11:32:08;2.90;;;1.80;;
1677;SDS011;6034;46.864;15.216;2023-09-19T11:34:38;2.60;;;1.40;;
1677;SDS011;6034;46.864;15.216;2023-09-19T11:40:28;2.60;;;2.03;;
1677;SDS011;6034;46.864;15.216;2023-09-19T11:42:55;2.13;;;1.57;;
1677;SDS011;6034;46.864;15.216;2023-09-19T11:48:39;4.10;;;1.60;;
1677;SDS011;6034;46.864;15.216;2023-09-19T11:51:13;4.27;;;2.37;;
1677;SDS011;6034;46.864;15.216;2023-09-19T11:53:45;3.87;;;1.90;;
1677;SDS011;6034;46.864;15.216;2023-09-19T11:56:15;3.03;;;1.80;;
1677;SDS011;6034;46.864;15.216;2023-09-19T11:58:44;2.37;;;1.63;;
1677;SDS011;6034;46.864;15.216;2023-09-19T12:01:20;4.90;;;2.10;;
1677;SDS011;6034;46.864;15.216;2023-09-19T12:03:52;2.93;;;2.07;;
1677;SDS011;6034;46.864;15.216;2023-09-19T12:06:22;4.57;;;1.73;;
1677;SDS011;6034;46.864;15.216;2023-09-19T12:08:50;2.80;;;1.50;;
1677;SDS011;6034;46.864;15.216;2023-09-19T12:11:19;2.53;;;1.80;;
1677;SDS011;6034;46.864;15.216;2023-09-19T12:13:48;1.93;;;1.20;;
1677;SDS011;6034;46.864;15.216;2023-09-19T12:16:19;1.70;;;1.23;;
1677;SDS011;6034;46.864;15.216;2023-09-19T12:18:51;5.60;;;2.17;;
1677;SDS011;6034;46.864;15.216;2023-09-19T12:21:21;2.70;;;1.33;;
1677;SDS011;6034;46.864;15.216;2023-09-19T12:26:45;3.13;;;1.70;;
1677;SDS011;6034;46.864;15.216;2023-09-19T12:29:18;2.13;;;1.70;;
1677;SDS011;6034;46.864;15.216;2023-09-19T12:31:49;2.60;;;1.77;;
1677;SDS011;6034;46.864;15.216;2023-09-19T12:34:21;3.10;;;1.47;;
1677;SDS011;6034;46.864;15.216;2023-09-19T12:37:03;2.90;;;1.50;;
1677;SDS011;6034;46.864;15.216;2023-09-19T12:39:36;1.83;;;1.53;;
1677;SDS011;6034;46.864;15.216;2023-09-19T12:42:07;3.47;;;1.50;;
1677;SDS011;6034;46.864;15.216;2023-09-19T12:44:36;2.60;;;1.67;;
1677;SDS011;6034;46.864;15.216;2023-09-19T12:47:11;2.60;;;2.00;;
1677;SDS011;6034;46.864;15.216;2023-09-19T12:52:43;4.00;;;2.03;;
1677;SDS011;6034;46.864;15.216;2023-09-19T12:55:25;3.20;;;1.83;;
1677;SDS011;6034;46.864;15.216;2023-09-19T12:58:00;1.83;;;1.30;;
1677;SDS011;6034;46.864;15.216;2023-09-19T13:00:35;4.03;;;1.50;;
1677;SDS011;6034;46.864;15.216;2023-09-19T13:03:14;3.40;;;1.80;;
1677;SDS011;6034;46.864;15.216;2023-09-19T13:05:52;2.90;;;1.23;;
1677;SDS011;6034;46.864;15.216;2023-09-19T13:08:24;3.37;;;1.60;;
1677;SDS011;6034;46.864;15.216;2023-09-19T13:11:04;2.23;;;1.47;;
1677;SDS011;6034;46.864;15.216;2023-09-19T13:13:35;4.53;;;1.40;;
1677;SDS011;6034;46.864;15.216;2023-09-19T13:16:03;2.00;;;1.40;;
1677;SDS011;6034;46.864;15.216;2023-09-19T13:21:29;2.00;;;1.30;;
1677;SDS011;6034;46.864;15.216;2023-09-19T13:24:18;2.83;;;1.40;;
1677;SDS011;6034;46.864;15.216;2023-09-19T13:26:46;3.23;;;1.40;;
1677;SDS011;6034;46.864;15.216;2023-09-19T13:29:14;2.80;;;1.50;;
1677;SDS011;6034;46.864;15.216;2023-09-19T13:31:45;2.80;;;2.03;;
1677;SDS011;6034;46.864;15.216;2023-09-19T13:34:14;3.17;;;1.37;;
1677;SDS011;6034;46.864;15.216;2023-09-19T13:36:42;7.87;;;2.03;;
1677;SDS011;6034;46.864;15.216;2023-09-19T13:39:10;2.63;;;1.50;;
1677;SDS011;6034;46.864;15.216;2023-09-19T13:41:38;1.60;;;1.30;;
1677;SDS011;6034;46.864;15.216;2023-09-19T13:44:06;2.50;;;1.60;;
1677;SDS011;6034;46.864;15.216;2023-09-19T13:46:35;3.80;;;1.33;;
1677;SDS011;6034;46.864;15.216;2023-09-19T13:49:03;3.20;;;1.60;;
1677;SDS011;6034;46.864;15.216;2023-09-19T13:51:32;2.43;;;1.80;;
1677;SDS011;6034;46.864;15.216;2023-09-19T13:54:00;5.03;;;1.93;;
1677;SDS011;6034;46.864;15.216;2023-09-19T13:56:28;3.20;;;1.33;;
1677;SDS011;6034;46.864;15.216;2023-09-19T13:58:56;5.10;;;1.63;;
1677;SDS011;6034;46.864;15.216;2023-09-19T14:01:24;2.30;;;2.10;;
1677;SDS011;6034;46.864;15.216;2023-09-19T14:03:52;2.57;;;1.67;;
1677;SDS011;6034;46.864;15.216;2023-09-19T14:06:21;3.50;;;1.63;;
1677;SDS011;6034;46.864;15.216;2023-09-19T14:08:49;4.70;;;2.00;;
1677;SDS011;6034;46.864;15.216;2023-09-19T14:11:17;3.00;;;1.40;;
1677;SDS011;6034;46.864;15.216;2023-09-19T14:13:45;3.00;;;2.00;;
1677;SDS011;6034;46.864;15.216;2023-09-19T14:16:15;2.67;;;1.50;;
1677;SDS011;6034;46.864;15.216;2023-09-19T14:18:44;2.97;;;1.70;;
1677;SDS011;6034;46.864;15.216;2023-09-19T14:21:12;2.43;;;1.50;;
1677;SDS011;6034;46.864;15.216;2023-09-19T14:23:40;2.50;;;1.80;;
1677;SDS011;6034;46.864;15.216;2023-09-19T14:26:10;2.77;;;2.20;;
1677;SDS011;6034;46.864;15.216;2023-09-19T14:28:38;2.70;;;1.90;;
1677;SDS011;6034;46.864;15.216;2023-09-19T14:31:06;3.03;;;1.70;;
1677;SDS011;6034;46.864;15.216;2023-09-19T14:33:33;3.23;;;1.90;;
1677;SDS011;6034;46.864;15.216;2023-09-19T14:36:04;2.83;;;1.70;;
1677;SDS011;6034;46.864;15.216;2023-09-19T14:38:33;2.60;;;1.90;;
1677;SDS011;6034;46.864;15.216;2023-09-19T14:41:02;2.63;;;1.50;;
1677;SDS011;6034;46.864;15.216;2023-09-19T14:43:32;2.73;;;1.53;;
1677;SDS011;6034;46.864;15.216;2023-09-19T14:46:02;2.13;;;1.43;;
1677;SDS011;6034;46.864;15.216;2023-09-19T14:48:30;2.27;;;1.20;;
1677;SDS011;6034;46.864;15.216;2023-09-19T14:51:01;2.73;;;1.47;;
1677;SDS011;6034;46.864;15.216;2023-09-19T14:53:29;2.47;;;1.40;;
1677;SDS011;6034;46.864;15.216;2023-09-19T14:55:59;2.57;;;1.40;;
1677;SDS011;6034;46.864;15.216;2023-09-19T14:58:29;2.10;;;1.50;;
1677;SDS011;6034;46.864;15.216;2023-09-19T15:01:06;2.50;;;1.50;;
1677;SDS011;6034;46.864;15.216;2023-09-19T15:03:35;2.63;;;1.50;;
1677;SDS011;6034;46.864;15.216;2023-09-19T15:06:05;2.10;;;1.23;;
1677;SDS011;6034;46.864;15.216;2023-09-19T15:08:36;2.90;;;1.30;;
1677;SDS011;6034;46.864;15.216;2023-09-19T15:11:06;2.10;;;1.30;;
1677;SDS011;6034;46.864;15.216;2023-09-19T15:13:35;1.77;;;1.13;;
1677;SDS011;6034;46.864;15.216;2023-09-19T15:16:04;2.97;;;1.67;;
1677;SDS011;6034;46.864;15.216;2023-09-19T15:18:36;2.00;;;1.23;;
1677;SDS011;6034;46.864;15.216;2023-09-19T15:21:05;3.27;;;1.67;;
1677;SDS011;6034;46.864;15.216;2023-09-19T15:23:36;3.63;;;1.67;;
1677;SDS011;6034;46.864;15.216;2023-09-19T15:26:05;2.33;;;1.50;;
1677;SDS011;6034;46.864;15.216;2023-09-19T15:28:36;3.50;;;1.30;;
1677;SDS011;6034;46.864;15.216;2023-09-19T15:31:07;3.20;;;1.57;;
1677;SDS011;6034;46.864;15.216;2023-09-19T15:33:37;3.63;;;1.67;;
1677;SDS011;6034;46.864;15.216;2023-09-19T15:36:05;1.90;;;1.43;;
1677;SDS011;6034;46.864;15.216;2023-09-19T15:41:25;3.40;;;1.30;;
1677;SDS011;6034;46.864;15.216;2023-09-19T15:43:54;3.53;;;1.97;;
1677;SDS011;6034;46.864;15.216;2023-09-19T15:46:25;2.10;;;1.60;;
1677;SDS011;6034;46.864;15.216;2023-09-19T15:48:54;3.30;;;1.63;;
1677;SDS011;6034;46.864;15.216;2023-09-19T15:51:24;3.57;;;1.70;;
1677;SDS011;6034;46.864;15.216;2023-09-19T15:53:52;3.57;;;1.43;;
1677;SDS011;6034;46.864;15.216;2023-09-19T15:56:22;4.40;;;2.20;;